sensor_id;sensor_type;location;lat;lon;timestamp;pressure;altitude;pressure_sealevel;temperature;humidity
42591;BME280;28218;53.342;-6.216;2023-03-26T00:02:24;99938.41;;;9.52;100.00
42591;BME280;28218;53.342;-6.216;2023-03-26T00:04:55;99930.50;;;9.52;100.00
42591;BME280;28218;53.342;-6.216;2023-03-26T00:07:23;99934.94;;;9.52;100.00
42591;BME280;28218;53.342;-6.216;2023-03-26T00:09:53;99929.16;;;9.56;100.00
42591;BME280;28218;53.342;-6.216;2023-03-26T00:12:25;99926.31;;;9.58;100.00
42591;BME280;28218;53.342;-6.216;2023-03-26T00:14:53;99924.63;;;9.65;100.00
42591;BME280;28218;53.342;-6.216;2023-03-26T00:17:21;99920.97;;;9.66;100.00
42591;BME280;28218;53.342;-6.216;2023-03-26T00:19:50;99922.25;;;9.70;100.00
42591;BME280;28218;53.342;-6.216;2023-03-26T00:22:19;99921.78;;;9.81;100.00
42591;BME280;28218;53.342;-6.216;2023-03-26T00:24:49;99916.78;;;9.86;100.00
42591;BME280;28218;53.342;-6.216;2023-03-26T00:27:17;99910.09;;;9.84;100.00
42591;BME280;28218;53.342;-6.216;2023-03-26T00:29:47;99903.44;;;9.88;100.00
42591;BME280;28218;53.342;-6.216;2023-03-26T00:32:15;99908.72;;;9.88;100.00
42591;BME280;28218;53.342;-6.216;2023-03-26T00:34:43;99909.56;;;9.88;100.00
42591;BME280;28218;53.342;-6.216;2023-03-26T00:37:11;99902.09;;;9.92;100.00
42591;BME280;28218;53.342;-6.216;2023-03-26T00:39:40;99895.47;;;9.96;100.00
42591;BME280;28218;53.342;-6.216;2023-03-26T00:42:10;99894.03;;;9.93;100.00
42591;BME280;28218;53.342;-6.216;2023-03-26T00:44:40;99893.22;;;9.93;100.00
42591;BME280;28218;53.342;-6.216;2023-03-26T00:47:10;99894.66;;;9.95;100.00
42591;BME280;28218;53.342;-6.216;2023-03-26T00:49:38;99884.13;;;9.95;100.00
42591;BME280;28218;53.342;-6.216;2023-03-26T00:52:07;99874.59;;;9.94;100.00
42591;BME280;28218;53.342;-6.216;2023-03-26T00:54:35;99861.09;;;9.97;100.00
42591;BME280;28218;53.342;-6.216;2023-03-26T00:57:03;99856.88;;;10.03;100.00
42591;BME280;28218;53.342;-6.216;2023-03-26T00:59:32;99857.16;;;10.08;100.00
42591;BME280;28218;53.342;-6.216;2023-03-26T01:02:01;99850.69;;;10.11;100.00
42591;BME280;28218;53.342;-6.216;2023-03-26T01:04:32;99845.41;;;10.11;100.00
42591;BME280;28218;53.342;-6.216;2023-03-26T01:07:09;99840.34;;;10.09;100.00
42591;BME280;28218;53.342;-6.216;2023-03-26T01:09:42;99840.16;;;10.11;100.00
42591;BME280;28218;53.342;-6.216;2023-03-26T01:12:18;99836.41;;;10.20;100.00
42591;BME280;28218;53.342;-6.216;2023-03-26T01:14:49;99833.72;;;10.13;100.00
42591;BME280;28218;53.342;-6.216;2023-03-26T01:17:18;99833.72;;;10.13;100.00
42591;BME280;28218;53.342;-6.216;2023-03-26T01:19:53;99832.91;;;10.13;100.00
42591;BME280;28218;53.342;-6.216;2023-03-26T01:22:25;99836.53;;;10.12;100.00
42591;BME280;28218;53.342;-6.216;2023-03-26T01:24:55;99836.91;;;10.09;100.00
42591;BME280;28218;53.342;-6.216;2023-03-26T01:27:31;99838.78;;;10.15;100.00
42591;BME280;28218;53.342;-6.216;2023-03-26T01:30:08;99823.63;;;10.17;100.00
42591;BME280;28218;53.342;-6.216;2023-03-26T01:32:49;99823.22;;;10.20;100.00
42591;BME280;28218;53.342;-6.216;2023-03-26T01:35:30;99825.88;;;10.20;100.00
42591;BME280;28218;53.342;-6.216;2023-03-26T01:38:12;99832.94;;;10.19;100.00
42591;BME280;28218;53.342;-6.216;2023-03-26T01:40:47;99829.69;;;10.17;100.00
42591;BME280;28218;53.342;-6.216;2023-03-26T01:43:25;99827.25;;;10.16;100.00
42591;BME280;28218;53.342;-6.216;2023-03-26T01:45:56;99828.63;;;10.12;100.00
42591;BME280;28218;53.342;-6.216;2023-03-26T01:48:31;99835.88;;;10.10;100.00
42591;BME280;28218;53.342;-6.216;2023-03-26T01:51:03;99833.81;;;10.05;100.00
42591;BME280;28218;53.342;-6.216;2023-03-26T01:53:32;99833.75;;;9.98;100.00
42591;BME280;28218;53.342;-6.216;2023-03-26T01:56:10;99830.47;;;9.96;100.00
42591;BME280;28218;53.342;-6.216;2023-03-26T01:58:51;99827.44;;;9.93;100.00
42591;BME280;28218;53.342;-6.216;2023-03-26T02:01:26;99831.44;;;9.89;100.00
42591;BME280;28218;53.342;-6.216;2023-03-26T02:04:01;99830.78;;;9.87;100.00
42591;BME280;28218;53.342;-6.216;2023-03-26T02:06:36;99829.97;;;9.86;100.00
42591;BME280;28218;53.342;-6.216;2023-03-26T02:09:10;99823.06;;;9.85;100.00
42591;BME280;28218;53.342;-6.216;2023-03-26T02:11:42;99819.63;;;9.85;100.00
42591;BME280;28218;53.342;-6.216;2023-03-26T02:14:12;99816.34;;;9.83;100.00
42591;BME280;28218;53.342;-6.216;2023-03-26T02:16:41;99820.81;;;9.82;100.00
42591;BME280;28218;53.342;-6.216;2023-03-26T02:19:14;99824.44;;;9.81;100.00
42591;BME280;28218;53.342;-6.216;2023-03-26T02:21:48;99817.56;;;9.80;100.00
42591;BME280;28218;53.342;-6.216;2023-03-26T02:24:17;99825.25;;;9.82;100.00
42591;BME280;28218;53.342;-6.216;2023-03-26T02:26:47;99827.06;;;9.81;100.00
42591;BME280;28218;53.342;-6.216;2023-03-26T02:29:16;99829.34;;;9.84;100.00
42591;BME280;28218;53.342;-6.216;2023-03-26T02:31:47;99830.16;;;9.85;100.00
42591;BME280;28218;53.342;-6.216;2023-03-26T02:34:15;99829.34;;;9.84;100.00
42591;BME280;28218;53.342;-6.216;2023-03-26T02:36:44;99827.53;;;9.85;100.00
42591;BME280;28218;53.342;-6.216;2023-03-26T02:39:12;99828.69;;;9.82;100.00
42591;BME280;28218;53.342;-6.216;2023-03-26T02:41:41;99823.19;;;9.77;100.00
42591;BME280;28218;53.342;-6.216;2023-03-26T02:44:10;99836.06;;;9.72;100.00
42591;BME280;28218;53.342;-6.216;2023-03-26T02:46:38;99834.44;;;9.71;100.00
42591;BME280;28218;53.342;-6.216;2023-03-26T02:49:07;99840.72;;;9.70;100.00
42591;BME280;28218;53.342;-6.216;2023-03-26T02:51:35;99835.44;;;9.70;100.00
42591;BME280;28218;53.342;-6.216;2023-03-26T02:54:03;99845.78;;;9.71;100.00
42591;BME280;28218;53.342;-6.216;2023-03-26T02:56:33;99846.59;;;9.72;100.00
42591;BME280;28218;53.342;-6.216;2023-03-26T02:59:01;99856.31;;;9.71;100.00
42591;BME280;28218;53.342;-6.216;2023-03-26T03:01:31;99858.75;;;9.73;100.00
42591;BME280;28218;53.342;-6.216;2023-03-26T03:04:01;99859.38;;;9.75;100.00
42591;BME280;28218;53.342;-6.216;2023-03-26T03:06:30;99862.47;;;9.79;100.00
42591;BME280;28218;53.342;-6.216;2023-03-26T03:08:58;99859.66;;;9.80;100.00
42591;BME280;28218;53.342;-6.216;2023-03-26T03:11:28;99863.09;;;9.81;100.00
42591;BME280;28218;53.342;-6.216;2023-03-26T03:13:56;99868.16;;;9.82;100.00
42591;BME280;28218;53.342;-6.216;2023-03-26T03:16:24;99866.53;;;9.81;100.00
42591;BME280;28218;53.342;-6.216;2023-03-26T03:18:54;99872.63;;;9.82;100.00
42591;BME280;28218;53.342;-6.216;2023-03-26T03:21:25;99870.19;;;9.80;100.00
42591;BME280;28218;53.342;-6.216;2023-03-26T03:23:54;99871.00;;;9.81;100.00
42591;BME280;28218;53.342;-6.216;2023-03-26T03:26:26;99873.00;;;9.79;100.00
42591;BME280;28218;53.342;-6.216;2023-03-26T03:28:56;99875.78;;;9.77;100.00
42591;BME280;28218;53.342;-6.216;2023-03-26T03:31:25;99872.81;;;9.80;100.00
42591;BME280;28218;53.342;-6.216;2023-03-26T03:33:55;99868.16;;;9.82;100.00
42591;BME280;28218;53.342;-6.216;2023-03-26T03:36:23;99884.75;;;9.83;100.00
42591;BME280;28218;53.342;-6.216;2023-03-26T03:38:53;99870.63;;;9.84;100.00
42591;BME280;28218;53.342;-6.216;2023-03-26T03:41:22;99879.88;;;9.80;100.00
42591;BME280;28218;53.342;-6.216;2023-03-26T03:43:50;99879.25;;;9.78;100.00
42591;BME280;28218;53.342;-6.216;2023-03-26T03:46:18;99884.69;;;9.76;100.00
42591;BME280;28218;53.342;-6.216;2023-03-26T03:48:46;99884.69;;;9.76;100.00
42591;BME280;28218;53.342;-6.216;2023-03-26T03:51:17;99881.88;;;9.78;100.00
42591;BME280;28218;53.342;-6.216;2023-03-26T03:53:45;99880.25;;;9.77;100.00
42591;BME280;28218;53.342;-6.216;2023-03-26T03:56:15;99885.69;;;9.75;100.00
42591;BME280;28218;53.342;-6.216;2023-03-26T03:58:44;99878.16;;;9.72;100.00
42591;BME280;28218;53.342;-6.216;2023-03-26T04:01:14;99881.78;;;9.71;100.00
42591;BME280;28218;53.342;-6.216;2023-03-26T04:03:42;99885.03;;;9.73;100.00
42591;BME280;28218;53.342;-6.216;2023-03-26T04:06:12;99887.06;;;9.71;100.00
42591;BME280;28218;53.342;-6.216;2023-03-26T04:08:46;99890.50;;;9.71;100.00
42591;BME280;28218;53.342;-6.216;2023-03-26T04:11:14;99893.94;;;9.72;100.00
42591;BME280;28218;53.342;-6.216;2023-03-26T04:13:43;99896.56;;;9.72;100.00
42591;BME280;28218;53.342;-6.216;2023-03-26T04:16:11;99898.94;;;9.67;100.00
42591;BME280;28218;53.342;-6.216;2023-03-26T04:18:39;99911.28;;;9.66;100.00
42591;BME280;28218;53.342;-6.216;2023-03-26T04:21:07;99894.03;;;9.64;100.00
42591;BME280;28218;53.342;-6.216;2023-03-26T04:23:38;99908.00;;;9.64;100.00
42591;BME280;28218;53.342;-6.216;2023-03-26T04:26:13;99908.84;;;9.65;100.00
42591;BME280;28218;53.342;-6.216;2023-03-26T04:28:44;99918.34;;;9.66;100.00
42591;BME280;28218;53.342;-6.216;2023-03-26T04:31:19;99919.34;;;9.65;100.00
42591;BME280;28218;53.342;-6.216;2023-03-26T04:33:51;99916.34;;;9.68;100.00
42591;BME280;28218;53.342;-6.216;2023-03-26T04:36:24;99923.22;;;9.69;100.00
42591;BME280;28218;53.342;-6.216;2023-03-26T04:38:54;99930.50;;;9.67;100.00
42591;BME280;28218;53.342;-6.216;2023-03-26T04:41:25;99929.03;;;9.64;100.00
42591;BME280;28218;53.342;-6.216;2023-03-26T04:43:55;99939.75;;;9.63;100.00
42591;BME280;28218;53.342;-6.216;2023-03-26T04:46:23;99939.13;;;9.61;100.00
42591;BME280;28218;53.342;-6.216;2023-03-26T04:48:52;99942.75;;;9.60;100.00
42591;BME280;28218;53.342;-6.216;2023-03-26T04:51:24;99946.56;;;9.57;100.00
42591;BME280;28218;53.342;-6.216;2023-03-26T04:53:54;99951.34;;;9.54;100.00
42591;BME280;28218;53.342;-6.216;2023-03-26T04:56:33;99957.25;;;9.56;100.00
42591;BME280;28218;53.342;-6.216;2023-03-26T04:59:03;99968.13;;;9.53;100.00
42591;BME280;28218;53.342;-6.216;2023-03-26T05:01:31;99962.88;;;9.53;100.00
42591;BME280;28218;53.342;-6.216;2023-03-26T05:04:03;99972.38;;;9.54;100.00
42591;BME280;28218;53.342;-6.216;2023-03-26T05:06:32;99976.03;;;9.53;100.00
42591;BME280;28218;53.342;-6.216;2023-03-26T05:09:00;99981.09;;;9.54;100.00
42591;BME280;28218;53.342;-6.216;2023-03-26T05:11:30;99981.91;;;9.55;100.00
42591;BME280;28218;53.342;-6.216;2023-03-26T05:13:58;99986.19;;;9.56;100.00
42591;BME280;28218;53.342;-6.216;2023-03-26T05:16:27;100000.69;;;9.52;100.00
42591;BME280;28218;53.342;-6.216;2023-03-26T05:18:55;100007.41;;;9.54;100.00
42591;BME280;28218;53.342;-6.216;2023-03-26T05:21:23;100010.69;;;9.56;100.00
42591;BME280;28218;53.342;-6.216;2023-03-26T05:23:52;100009.88;;;9.56;100.00
42591;BME280;28218;53.342;-6.216;2023-03-26T05:26:20;100012.66;;;9.54;100.00
42591;BME280;28218;53.342;-6.216;2023-03-26T05:28:49;100027.81;;;9.52;100.00
42591;BME280;28218;53.342;-6.216;2023-03-26T05:31:18;100030.63;;;9.51;100.00
42591;BME280;28218;53.342;-6.216;2023-03-26T05:33:48;100037.50;;;9.52;100.00
42591;BME280;28218;53.342;-6.216;2023-03-26T05:36:16;100047.03;;;9.53;100.00
42591;BME280;28218;53.342;-6.216;2023-03-26T05:38:45;100054.28;;;9.51;100.00
42591;BME280;28218;53.342;-6.216;2023-03-26T05:41:15;100059.19;;;9.54;100.00
42591;BME280;28218;53.342;-6.216;2023-03-26T05:43:44;100064.44;;;9.54;100.00
42591;BME280;28218;53.342;-6.216;2023-03-26T05:46:15;100066.06;;;9.55;100.00
42591;BME280;28218;53.342;-6.216;2023-03-26T05:48:43;100069.22;;;9.50;100.00
42591;BME280;28218;53.342;-6.216;2023-03-26T05:51:12;100073.66;;;9.50;100.00
42591;BME280;28218;53.342;-6.216;2023-03-26T05:53:42;100095.91;;;9.47;100.00
42591;BME280;28218;53.342;-6.216;2023-03-26T05:56:10;100099.69;;;9.44;100.00
42591;BME280;28218;53.342;-6.216;2023-03-26T05:58:38;100102.50;;;9.43;100.00
42591;BME280;28218;53.342;-6.216;2023-03-26T06:01:09;100115.81;;;9.41;100.00
42591;BME280;28218;53.342;-6.216;2023-03-26T06:03:44;100115.34;;;9.38;100.00
42591;BME280;28218;53.342;-6.216;2023-03-26T06:06:15;100131.66;;;9.33;100.00
42591;BME280;28218;53.342;-6.216;2023-03-26T06:08:45;100141.50;;;9.31;100.00
42591;BME280;28218;53.342;-6.216;2023-03-26T06:11:29;100146.94;;;9.30;100.00
42591;BME280;28218;53.342;-6.216;2023-03-26T06:13:57;100151.72;;;9.26;100.00
42591;BME280;28218;53.342;-6.216;2023-03-26T06:16:26;100152.91;;;9.24;100.00
42591;BME280;28218;53.342;-6.216;2023-03-26T06:18:56;100170.13;;;9.26;100.00
42591;BME280;28218;53.342;-6.216;2023-03-26T06:21:24;100175.88;;;9.30;100.00
42591;BME280;28218;53.342;-6.216;2023-03-26T06:23:53;100180.94;;;9.31;100.00
42591;BME280;28218;53.342;-6.216;2023-03-26T06:26:21;100188.19;;;9.29;100.00
42591;BME280;28218;53.342;-6.216;2023-03-26T06:28:50;100196.25;;;9.28;100.00
42591;BME280;28218;53.342;-6.216;2023-03-26T06:31:18;100203.97;;;9.29;100.00
42591;BME280;28218;53.342;-6.216;2023-03-26T06:33:46;100214.81;;;9.26;100.00
42591;BME280;28218;53.342;-6.216;2023-03-26T06:36:16;100222.06;;;9.24;100.00
42591;BME280;28218;53.342;-6.216;2023-03-26T06:38:45;100230.97;;;9.23;100.00
42591;BME280;28218;53.342;-6.216;2023-03-26T06:41:13;100231.41;;;9.27;100.00
42591;BME280;28218;53.342;-6.216;2023-03-26T06:43:41;100242.41;;;9.30;100.00
42591;BME280;28218;53.342;-6.216;2023-03-26T06:46:10;100249.16;;;9.33;100.00
42591;BME280;28218;53.342;-6.216;2023-03-26T06:48:39;100256.69;;;9.36;100.00
42591;BME280;28218;53.342;-6.216;2023-03-26T06:51:08;100248.28;;;9.40;100.00
42591;BME280;28218;53.342;-6.216;2023-03-26T06:53:38;100254.00;;;9.44;100.00
42591;BME280;28218;53.342;-6.216;2023-03-26T06:56:07;100264.34;;;9.45;100.00
42591;BME280;28218;53.342;-6.216;2023-03-26T06:58:35;100277.34;;;9.47;100.00
42591;BME280;28218;53.342;-6.216;2023-03-26T07:01:04;100279.81;;;9.48;100.00
42591;BME280;28218;53.342;-6.216;2023-03-26T07:03:32;100287.34;;;9.52;100.00
42591;BME280;28218;53.342;-6.216;2023-03-26T07:06:00;100294.88;;;9.55;100.00
42591;BME280;28218;53.342;-6.216;2023-03-26T07:08:29;100297.19;;;9.58;100.00
42591;BME280;28218;53.342;-6.216;2023-03-26T07:10:59;100302.97;;;9.53;100.00
42591;BME280;28218;53.342;-6.216;2023-03-26T07:13:27;100313.66;;;9.52;100.00
42591;BME280;28218;53.342;-6.216;2023-03-26T07:15:55;100326.13;;;9.50;100.00
42591;BME280;28218;53.342;-6.216;2023-03-26T07:18:24;100335.53;;;9.44;100.00
42591;BME280;28218;53.342;-6.216;2023-03-26T07:20:53;100347.38;;;9.48;100.00
42591;BME280;28218;53.342;-6.216;2023-03-26T07:23:22;100362.81;;;9.51;100.00
42591;BME280;28218;53.342;-6.216;2023-03-26T07:25:54;100365.25;;;9.53;100.00
42591;BME280;28218;53.342;-6.216;2023-03-26T07:28:29;100371.66;;;9.50;100.00
42591;BME280;28218;53.342;-6.216;2023-03-26T07:31:07;100380.06;;;9.54;100.00
42591;BME280;28218;53.342;-6.216;2023-03-26T07:33:43;100385.66;;;9.51;100.00
42591;BME280;28218;53.342;-6.216;2023-03-26T07:36:22;100392.19;;;9.55;100.00
42591;BME280;28218;53.342;-6.216;2023-03-26T07:39:03;100405.22;;;9.56;100.00
42591;BME280;28218;53.342;-6.216;2023-03-26T07:41:41;100412.91;;;9.58;100.00
42591;BME280;28218;53.342;-6.216;2023-03-26T07:44:42;100426.06;;;9.58;100.00
42591;BME280;28218;53.342;-6.216;2023-03-26T07:47:22;100422.63;;;9.57;100.00
42591;BME280;28218;53.342;-6.216;2023-03-26T07:49:53;100436.78;;;9.56;100.00
42591;BME280;28218;53.342;-6.216;2023-03-26T07:52:24;100444.16;;;9.53;100.00
42591;BME280;28218;53.342;-6.216;2023-03-26T07:54:55;100446.31;;;9.49;100.00
42591;BME280;28218;53.342;-6.216;2023-03-26T07:57:32;100451.06;;;9.45;100.00
42591;BME280;28218;53.342;-6.216;2023-03-26T08:00:16;100465.88;;;9.46;100.00
42591;BME280;28218;53.342;-6.216;2023-03-26T08:03:20;100476.56;;;9.45;100.00
42591;BME280;28218;53.342;-6.216;2023-03-26T08:05:58;100486.94;;;9.46;100.00
42591;BME280;28218;53.342;-6.216;2023-03-26T08:08:37;100489.22;;;9.41;100.00
42591;BME280;28218;53.342;-6.216;2023-03-26T08:11:20;100498.41;;;9.45;100.00
42591;BME280;28218;53.342;-6.216;2023-03-26T08:13:58;100508.78;;;9.47;100.00
42591;BME280;28218;53.342;-6.216;2023-03-26T08:16:34;100515.19;;;9.44;100.00
42591;BME280;28218;53.342;-6.216;2023-03-26T08:19:10;100529.81;;;9.39;100.00
42591;BME280;28218;53.342;-6.216;2023-03-26T08:21:48;100537.22;;;9.35;100.00
42591;BME280;28218;53.342;-6.216;2023-03-26T08:24:23;100542.31;;;9.37;100.00
42591;BME280;28218;53.342;-6.216;2023-03-26T08:26:59;100546.25;;;9.41;100.00
42591;BME280;28218;53.342;-6.216;2023-03-26T08:29:35;100560.25;;;9.41;100.00
42591;BME280;28218;53.342;-6.216;2023-03-26T08:32:14;100566.47;;;9.40;100.00
42591;BME280;28218;53.342;-6.216;2023-03-26T08:34:43;100570.75;;;9.41;100.00
42591;BME280;28218;53.342;-6.216;2023-03-26T08:37:12;100588.19;;;9.42;100.00
42591;BME280;28218;53.342;-6.216;2023-03-26T08:39:40;100587.66;;;9.39;100.00
42591;BME280;28218;53.342;-6.216;2023-03-26T08:45:43;100614.13;;;9.29;100.00
42591;BME280;28218;53.342;-6.216;2023-03-26T08:48:43;100614.78;;;9.31;100.00
42591;BME280;28218;53.342;-6.216;2023-03-26T08:55:10;100634.50;;;9.27;100.00
42591;BME280;28218;53.342;-6.216;2023-03-26T09:01:10;100650.78;;;9.39;100.00
42591;BME280;28218;53.342;-6.216;2023-03-26T09:04:24;100658.19;;;9.43;100.00
42591;BME280;28218;53.342;-6.216;2023-03-26T09:10:44;100673.50;;;9.56;100.00
42591;BME280;28218;53.342;-6.216;2023-03-26T09:13:29;100675.16;;;9.65;100.00
42591;BME280;28218;53.342;-6.216;2023-03-26T09:22:51;100699.84;;;10.05;100.00
42591;BME280;28218;53.342;-6.216;2023-03-26T09:25:43;100710.53;;;9.95;100.00
42591;BME280;28218;53.342;-6.216;2023-03-26T09:34:47;100747.72;;;9.84;100.00
42591;BME280;28218;53.342;-6.216;2023-03-26T09:37:27;100753.47;;;9.80;100.00
42591;BME280;28218;53.342;-6.216;2023-03-26T09:40:14;100767.09;;;9.75;100.00
42591;BME280;28218;53.342;-6.216;2023-03-26T09:42:47;100776.97;;;9.81;100.00
42591;BME280;28218;53.342;-6.216;2023-03-26T09:48:25;100789.47;;;9.79;100.00
42591;BME280;28218;53.342;-6.216;2023-03-26T09:51:20;100798.69;;;9.75;100.00
42591;BME280;28218;53.342;-6.216;2023-03-26T09:54:13;100803.94;;;9.75;100.00
42591;BME280;28218;53.342;-6.216;2023-03-26T09:56:51;100817.09;;;9.75;100.00
42591;BME280;28218;53.342;-6.216;2023-03-26T10:02:28;100837.47;;;9.73;100.00
42591;BME280;28218;53.342;-6.216;2023-03-26T10:05:38;100848.31;;;9.70;100.00
42591;BME280;28218;53.342;-6.216;2023-03-26T10:08:26;100859.81;;;9.61;100.00
42591;BME280;28218;53.342;-6.216;2023-03-26T10:11:02;100867.13;;;9.49;100.00
42591;BME280;28218;53.342;-6.216;2023-03-26T10:13:41;100883.56;;;9.43;100.00
42591;BME280;28218;53.342;-6.216;2023-03-26T10:16:22;100888.00;;;9.42;100.00
42591;BME280;28218;53.342;-6.216;2023-03-26T10:19:01;100889.28;;;9.38;100.00
42591;BME280;28218;53.342;-6.216;2023-03-26T10:21:39;100896.66;;;9.35;100.00
42591;BME280;28218;53.342;-6.216;2023-03-26T10:24:25;100899.28;;;9.35;100.00
42591;BME280;28218;53.342;-6.216;2023-03-26T10:27:19;100916.03;;;9.34;100.00
42591;BME280;28218;53.342;-6.216;2023-03-26T10:30:02;100910.78;;;9.34;100.00
42591;BME280;28218;53.342;-6.216;2023-03-26T10:32:39;100925.94;;;9.40;100.00
42591;BME280;28218;53.342;-6.216;2023-03-26T10:35:21;100931.19;;;9.40;100.00
42591;BME280;28218;53.342;-6.216;2023-03-26T10:38:03;100931.53;;;9.37;100.00
42591;BME280;28218;53.342;-6.216;2023-03-26T10:40:40;100946.84;;;9.41;100.00
42591;BME280;28218;53.342;-6.216;2023-03-26T10:46:56;100957.09;;;9.53;100.00
42591;BME280;28218;53.342;-6.216;2023-03-26T10:49:46;100962.00;;;9.47;100.00
42591;BME280;28218;53.342;-6.216;2023-03-26T10:52:20;100964.91;;;9.44;100.00
42591;BME280;28218;53.342;-6.216;2023-03-26T10:54:55;100971.81;;;9.45;100.00
42591;BME280;28218;53.342;-6.216;2023-03-26T10:57:38;100979.56;;;9.47;100.00
42591;BME280;28218;53.342;-6.216;2023-03-26T11:00:16;100982.22;;;9.47;100.00
42591;BME280;28218;53.342;-6.216;2023-03-26T11:05:49;100987.53;;;9.55;100.00
42591;BME280;28218;53.342;-6.216;2023-03-26T11:08:25;100998.06;;;9.55;100.00
42591;BME280;28218;53.342;-6.216;2023-03-26T11:11:04;100999.34;;;9.51;100.00
42591;BME280;28218;53.342;-6.216;2023-03-26T11:13:45;101011.97;;;9.47;100.00
42591;BME280;28218;53.342;-6.216;2023-03-26T11:16:18;101022.75;;;9.36;100.00
42591;BME280;28218;53.342;-6.216;2023-03-26T11:18:54;101029.56;;;9.29;100.00
42591;BME280;28218;53.342;-6.216;2023-03-26T11:21:28;101040.09;;;9.29;100.00
42591;BME280;28218;53.342;-6.216;2023-03-26T11:24:11;101038.44;;;9.28;100.00
42591;BME280;28218;53.342;-6.216;2023-03-26T11:26:49;101041.38;;;9.25;100.00
42591;BME280;28218;53.342;-6.216;2023-03-26T11:29:33;101048.59;;;9.23;100.00
42591;BME280;28218;53.342;-6.216;2023-03-26T11:32:09;101061.06;;;9.21;100.00
42591;BME280;28218;53.342;-6.216;2023-03-26T11:34:43;101057.06;;;9.17;100.00
42591;BME280;28218;53.342;-6.216;2023-03-26T11:37:15;101062.84;;;9.20;100.00
42591;BME280;28218;53.342;-6.216;2023-03-26T11:39:49;101063.38;;;9.24;100.00
42591;BME280;28218;53.342;-6.216;2023-03-26T11:42:23;101068.34;;;9.27;100.00
42591;BME280;28218;53.342;-6.216;2023-03-26T11:44:54;101069.69;;;9.31;100.00
42591;BME280;28218;53.342;-6.216;2023-03-26T11:47:28;101073.66;;;9.35;100.00
42591;BME280;28218;53.342;-6.216;2023-03-26T11:50:00;101084.19;;;9.35;100.00
42591;BME280;28218;53.342;-6.216;2023-03-26T11:52:30;101089.06;;;9.30;100.00
42591;BME280;28218;53.342;-6.216;2023-03-26T11:54:58;101095.31;;;9.29;100.00
42591;BME280;28218;53.342;-6.216;2023-03-26T11:57:28;101104.84;;;9.30;100.00
42591;BME280;28218;53.342;-6.216;2023-03-26T12:00:02;101110.47;;;9.35;100.00
42591;BME280;28218;53.342;-6.216;2023-03-26T12:02:42;101114.78;;;9.36;100.00
42591;BME280;28218;53.342;-6.216;2023-03-26T12:05:16;101118.63;;;9.42;100.00
42591;BME280;28218;53.342;-6.216;2023-03-26T12:07:52;101129.34;;;9.48;100.00
42591;BME280;28218;53.342;-6.216;2023-03-26T12:10:26;101134.00;;;9.55;100.00
42591;BME280;28218;53.342;-6.216;2023-03-26T12:12:57;101143.03;;;9.70;100.00
42591;BME280;28218;53.342;-6.216;2023-03-26T12:15:26;101147.88;;;9.83;100.00
42591;BME280;28218;53.342;-6.216;2023-03-26T12:17:57;101158.56;;;9.81;100.00
42591;BME280;28218;53.342;-6.216;2023-03-26T12:20:39;101166.84;;;9.68;100.00
42591;BME280;28218;53.342;-6.216;2023-03-26T12:23:35;101178.97;;;9.61;100.00
42591;BME280;28218;53.342;-6.216;2023-03-26T12:26:13;101184.50;;;9.58;100.00
42591;BME280;28218;53.342;-6.216;2023-03-26T12:28:46;101190.69;;;9.67;100.00
42591;BME280;28218;53.342;-6.216;2023-03-26T12:31:16;101200.03;;;9.79;100.00
42591;BME280;28218;53.342;-6.216;2023-03-26T12:34:05;101206.16;;;9.88;100.00
42591;BME280;28218;53.342;-6.216;2023-03-26T12:36:37;101209.31;;;9.91;100.00
42591;BME280;28218;53.342;-6.216;2023-03-26T12:39:31;101216.63;;;9.97;100.00
42591;BME280;28218;53.342;-6.216;2023-03-26T12:42:26;101230.91;;;9.95;100.00
42591;BME280;28218;53.342;-6.216;2023-03-26T12:45:14;101236.63;;;9.90;100.00
42591;BME280;28218;53.342;-6.216;2023-03-26T12:47:43;101258.06;;;9.95;100.00
42591;BME280;28218;53.342;-6.216;2023-03-26T12:50:32;101268.13;;;10.00;100.00
42591;BME280;28218;53.342;-6.216;2023-03-26T12:53:23;101275.22;;;9.99;100.00
42591;BME280;28218;53.342;-6.216;2023-03-26T12:55:58;101290.84;;;10.01;100.00
42591;BME280;28218;53.342;-6.216;2023-03-26T12:58:42;101292.91;;;10.07;100.00
42591;BME280;28218;53.342;-6.216;2023-03-26T13:01:27;101305.00;;;10.18;100.00
42591;BME280;28218;53.342;-6.216;2023-03-26T13:04:22;101309.53;;;10.26;100.00
42591;BME280;28218;53.342;-6.216;2023-03-26T13:06:56;101321.56;;;10.28;100.00
42591;BME280;28218;53.342;-6.216;2023-03-26T13:09:36;101323.59;;;10.34;100.00
42591;BME280;28218;53.342;-6.216;2023-03-26T13:12:16;101332.56;;;10.41;100.00
42591;BME280;28218;53.342;-6.216;2023-03-26T13:14:56;101339.63;;;10.41;100.00
42591;BME280;28218;53.342;-6.216;2023-03-26T13:17:34;101346.34;;;10.35;100.00
42591;BME280;28218;53.342;-6.216;2023-03-26T13:20:09;101358.16;;;10.31;100.00
42591;BME280;28218;53.342;-6.216;2023-03-26T13:22:48;101362.06;;;10.27;100.00
42591;BME280;28218;53.342;-6.216;2023-03-26T13:25:30;101378.28;;;10.22;100.00
42591;BME280;28218;53.342;-6.216;2023-03-26T13:28:11;101378.28;;;10.22;100.00
42591;BME280;28218;53.342;-6.216;2023-03-26T13:30:49;101385.06;;;10.25;100.00
42591;BME280;28218;53.342;-6.216;2023-03-26T13:33:35;101386.44;;;10.29;100.00
42591;BME280;28218;53.342;-6.216;2023-03-26T13:36:09;101389.16;;;10.37;100.00
42591;BME280;28218;53.342;-6.216;2023-03-26T13:38:59;101391.88;;;10.45;100.00
42591;BME280;28218;53.342;-6.216;2023-03-26T13:41:43;101400.16;;;10.51;100.00
42591;BME280;28218;53.342;-6.216;2023-03-26T13:44:24;101406.47;;;10.58;100.00
42591;BME280;28218;53.342;-6.216;2023-03-26T13:46:59;101412.56;;;10.58;100.00
42591;BME280;28218;53.342;-6.216;2023-03-26T13:49:35;101418.34;;;10.62;100.00
42591;BME280;28218;53.342;-6.216;2023-03-26T13:52:08;101438.63;;;10.61;100.00
42591;BME280;28218;53.342;-6.216;2023-03-26T13:54:42;101430.25;;;10.66;100.00
42591;BME280;28218;53.342;-6.216;2023-03-26T13:57:19;101443.97;;;10.69;100.00
42591;BME280;28218;53.342;-6.216;2023-03-26T13:59:52;101447.13;;;10.73;100.00